sensor_id;sensor_type;location;lat;lon;timestamp;temperature;humidity
7822;DHT22;3956;50.558;9.678;2022-09-13T00:01:26;13.10;99.90
7822;DHT22;3956;50.558;9.678;2022-09-13T00:03:54;13.10;99.90
7822;DHT22;3956;50.558;9.678;2022-09-13T00:06:24;13.20;99.90
7822;DHT22;3956;50.558;9.678;2022-09-13T00:08:52;13.20;99.90
7822;DHT22;3956;50.558;9.678;2022-09-13T00:11:23;13.20;99.90
7822;DHT22;3956;50.558;9.678;2022-09-13T00:13:53;13.30;99.90
7822;DHT22;3956;50.558;9.678;2022-09-13T00:16:34;13.30;99.90
7822;DHT22;3956;50.558;9.678;2022-09-13T00:19:03;13.30;99.90
7822;DHT22;3956;50.558;9.678;2022-09-13T00:21:36;13.40;99.90
7822;DHT22;3956;50.558;9.678;2022-09-13T00:24:06;13.40;99.90
7822;DHT22;3956;50.558;9.678;2022-09-13T00:26:34;13.30;99.90
7822;DHT22;3956;50.558;9.678;2022-09-13T00:29:03;13.20;99.90
7822;DHT22;3956;50.558;9.678;2022-09-13T00:31:32;13.20;99.90
7822;DHT22;3956;50.558;9.678;2022-09-13T00:34:00;13.20;99.90
7822;DHT22;3956;50.558;9.678;2022-09-13T00:36:29;13.10;99.90
7822;DHT22;3956;50.558;9.678;2022-09-13T00:39:00;13.00;99.90
7822;DHT22;3956;50.558;9.678;2022-09-13T00:41:29;12.90;99.90
7822;DHT22;3956;50.558;9.678;2022-09-13T00:43:59;13.00;99.90
7822;DHT22;3956;50.558;9.678;2022-09-13T00:46:33;13.00;99.90
7822;DHT22;3956;50.558;9.678;2022-09-13T00:49:12;12.90;99.90
7822;DHT22;3956;50.558;9.678;2022-09-13T00:51:44;12.90;99.90
7822;DHT22;3956;50.558;9.678;2022-09-13T00:54:16;12.80;99.90
7822;DHT22;3956;50.558;9.678;2022-09-13T00:56:48;12.60;99.90
7822;DHT22;3956;50.558;9.678;2022-09-13T00:59:22;12.60;99.90
7822;DHT22;3956;50.558;9.678;2022-09-13T01:01:54;12.60;99.90
7822;DHT22;3956;50.558;9.678;2022-09-13T01:04:25;12.70;99.90
7822;DHT22;3956;50.558;9.678;2022-09-13T01:06:56;12.60;99.90
7822;DHT22;3956;50.558;9.678;2022-09-13T01:09:29;12.70;99.90
7822;DHT22;3956;50.558;9.678;2022-09-13T01:12:03;12.70;99.90
7822;DHT22;3956;50.558;9.678;2022-09-13T01:14:34;12.70;99.90
7822;DHT22;3956;50.558;9.678;2022-09-13T01:17:04;12.70;99.90
7822;DHT22;3956;50.558;9.678;2022-09-13T01:19:32;12.80;99.90
7822;DHT22;3956;50.558;9.678;2022-09-13T01:22:30;12.80;99.90
7822;DHT22;3956;50.558;9.678;2022-09-13T01:31:14;12.60;99.90
7822;DHT22;3956;50.558;9.678;2022-09-13T01:33:54;12.60;99.90
7822;DHT22;3956;50.558;9.678;2022-09-13T01:37:00;12.60;99.90
7822;DHT22;3956;50.558;9.678;2022-09-13T01:40:02;12.60;99.90
7822;DHT22;3956;50.558;9.678;2022-09-13T01:42:44;12.60;99.90
7822;DHT22;3956;50.558;9.678;2022-09-13T01:45:22;12.60;99.90
7822;DHT22;3956;50.558;9.678;2022-09-13T01:47:56;12.60;99.90
7822;DHT22;3956;50.558;9.678;2022-09-13T01:50:37;12.60;99.90
7822;DHT22;3956;50.558;9.678;2022-09-13T01:53:16;12.60;99.90
7822;DHT22;3956;50.558;9.678;2022-09-13T01:55:50;12.60;99.90
7822;DHT22;3956;50.558;9.678;2022-09-13T01:58:22;12.60;99.90
7822;DHT22;3956;50.558;9.678;2022-09-13T02:00:58;12.60;99.90
7822;DHT22;3956;50.558;9.678;2022-09-13T02:03:34;12.60;99.90
7822;DHT22;3956;50.558;9.678;2022-09-13T02:06:09;12.50;99.90
7822;DHT22;3956;50.558;9.678;2022-09-13T02:08:41;12.50;99.90
7822;DHT22;3956;50.558;9.678;2022-09-13T02:11:13;12.60;99.90
7822;DHT22;3956;50.558;9.678;2022-09-13T02:13:50;12.40;99.90
7822;DHT22;3956;50.558;9.678;2022-09-13T02:16:28;12.20;99.90
7822;DHT22;3956;50.558;9.678;2022-09-13T02:19:04;12.20;99.90
7822;DHT22;3956;50.558;9.678;2022-09-13T02:21:37;12.10;99.90
7822;DHT22;3956;50.558;9.678;2022-09-13T02:24:07;12.10;99.90
7822;DHT22;3956;50.558;9.678;2022-09-13T02:26:38;12.10;99.90
7822;DHT22;3956;50.558;9.678;2022-09-13T02:29:10;12.10;99.90
7822;DHT22;3956;50.558;9.678;2022-09-13T02:31:44;12.10;99.90
7822;DHT22;3956;50.558;9.678;2022-09-13T02:34:22;12.00;99.90
7822;DHT22;3956;50.558;9.678;2022-09-13T02:36:56;12.00;99.90
7822;DHT22;3956;50.558;9.678;2022-09-13T02:39:30;12.10;99.90
7822;DHT22;3956;50.558;9.678;2022-09-13T02:42:07;12.10;99.90
7822;DHT22;3956;50.558;9.678;2022-09-13T02:44:41;12.10;99.90
7822;DHT22;3956;50.558;9.678;2022-09-13T02:47:22;12.20;99.90
7822;DHT22;3956;50.558;9.678;2022-09-13T02:50:06;12.20;99.90
7822;DHT22;3956;50.558;9.678;2022-09-13T02:52:44;12.10;99.90
7822;DHT22;3956;50.558;9.678;2022-09-13T02:55:18;12.10;99.90
7822;DHT22;3956;50.558;9.678;2022-09-13T02:57:53;12.20;99.90
7822;DHT22;3956;50.558;9.678;2022-09-13T03:00:22;12.20;99.90
7822;DHT22;3956;50.558;9.678;2022-09-13T03:02:53;12.30;99.90
7822;DHT22;3956;50.558;9.678;2022-09-13T03:05:25;12.30;99.90
7822;DHT22;3956;50.558;9.678;2022-09-13T03:07:54;12.30;99.90
7822;DHT22;3956;50.558;9.678;2022-09-13T03:10:22;12.30;99.90
7822;DHT22;3956;50.558;9.678;2022-09-13T03:13:16;12.20;99.90
7822;DHT22;3956;50.558;9.678;2022-09-13T03:15:55;12.30;99.90
7822;DHT22;3956;50.558;9.678;2022-09-13T03:18:39;12.10;99.90
7822;DHT22;3956;50.558;9.678;2022-09-13T03:21:18;12.10;99.90
7822;DHT22;3956;50.558;9.678;2022-09-13T03:24:00;12.10;99.90
7822;DHT22;3956;50.558;9.678;2022-09-13T03:26:40;12.10;99.90
7822;DHT22;3956;50.558;9.678;2022-09-13T03:29:30;12.10;99.90
7822;DHT22;3956;50.558;9.678;2022-09-13T03:32:19;12.10;99.90
7822;DHT22;3956;50.558;9.678;2022-09-13T03:34:54;12.10;99.90
7822;DHT22;3956;50.558;9.678;2022-09-13T03:37:31;12.10;99.90
7822;DHT22;3956;50.558;9.678;2022-09-13T03:40:07;12.00;99.90
7822;DHT22;3956;50.558;9.678;2022-09-13T03:42:43;12.00;99.90
7822;DHT22;3956;50.558;9.678;2022-09-13T03:45:17;12.00;99.90
7822;DHT22;3956;50.558;9.678;2022-09-13T03:47:54;12.00;99.90
7822;DHT22;3956;50.558;9.678;2022-09-13T03:50:26;12.00;99.90
7822;DHT22;3956;50.558;9.678;2022-09-13T03:53:00;12.10;99.90
7822;DHT22;3956;50.558;9.678;2022-09-13T03:55:32;12.00;99.90
7822;DHT22;3956;50.558;9.678;2022-09-13T03:58:01;12.00;99.90
7822;DHT22;3956;50.558;9.678;2022-09-13T04:00:29;12.10;99.90
7822;DHT22;3956;50.558;9.678;2022-09-13T04:02:57;11.90;99.90
7822;DHT22;3956;50.558;9.678;2022-09-13T04:05:26;11.90;99.90
7822;DHT22;3956;50.558;9.678;2022-09-13T04:07:54;12.00;99.90
7822;DHT22;3956;50.558;9.678;2022-09-13T04:10:24;12.00;99.90
7822;DHT22;3956;50.558;9.678;2022-09-13T04:12:53;12.10;99.90
7822;DHT22;3956;50.558;9.678;2022-09-13T04:15:23;12.20;99.90
7822;DHT22;3956;50.558;9.678;2022-09-13T04:17:56;12.30;99.90
7822;DHT22;3956;50.558;9.678;2022-09-13T04:20:30;12.40;99.90
7822;DHT22;3956;50.558;9.678;2022-09-13T04:23:06;12.40;99.90
7822;DHT22;3956;50.558;9.678;2022-09-13T04:25:43;12.50;99.90
7822;DHT22;3956;50.558;9.678;2022-09-13T04:28:22;12.50;99.90
7822;DHT22;3956;50.558;9.678;2022-09-13T04:30:50;12.50;99.90
7822;DHT22;3956;50.558;9.678;2022-09-13T04:33:20;12.50;99.90
7822;DHT22;3956;50.558;9.678;2022-09-13T04:35:57;12.60;99.90
7822;DHT22;3956;50.558;9.678;2022-09-13T04:38:26;12.70;99.90
7822;DHT22;3956;50.558;9.678;2022-09-13T04:41:00;12.80;99.90
7822;DHT22;3956;50.558;9.678;2022-09-13T04:43:30;12.70;99.90
7822;DHT22;3956;50.558;9.678;2022-09-13T04:46:03;12.60;99.90
7822;DHT22;3956;50.558;9.678;2022-09-13T04:48:31;12.50;99.90
7822;DHT22;3956;50.558;9.678;2022-09-13T04:51:03;12.40;99.90
7822;DHT22;3956;50.558;9.678;2022-09-13T04:53:39;12.20;99.90
7822;DHT22;3956;50.558;9.678;2022-09-13T04:56:13;12.30;99.90
7822;DHT22;3956;50.558;9.678;2022-09-13T04:58:46;12.30;99.90
7822;DHT22;3956;50.558;9.678;2022-09-13T05:01:23;12.40;99.90
7822;DHT22;3956;50.558;9.678;2022-09-13T05:03:58;12.40;99.90
7822;DHT22;3956;50.558;9.678;2022-09-13T05:06:39;12.50;99.90
7822;DHT22;3956;50.558;9.678;2022-09-13T05:09:22;12.50;99.90
7822;DHT22;3956;50.558;9.678;2022-09-13T05:12:04;12.60;99.90
7822;DHT22;3956;50.558;9.678;2022-09-13T05:14:42;12.70;99.90
7822;DHT22;3956;50.558;9.678;2022-09-13T05:17:23;12.80;99.90
7822;DHT22;3956;50.558;9.678;2022-09-13T05:19:55;12.80;99.90
7822;DHT22;3956;50.558;9.678;2022-09-13T05:22:24;12.80;99.90
7822;DHT22;3956;50.558;9.678;2022-09-13T05:24:55;12.80;99.90
7822;DHT22;3956;50.558;9.678;2022-09-13T05:27:28;12.90;99.90
7822;DHT22;3956;50.558;9.678;2022-09-13T05:29:58;13.00;99.90
7822;DHT22;3956;50.558;9.678;2022-09-13T05:32:33;13.10;99.90
7822;DHT22;3956;50.558;9.678;2022-09-13T05:35:02;13.20;99.90
7822;DHT22;3956;50.558;9.678;2022-09-13T05:37:34;13.20;99.90
7822;DHT22;3956;50.558;9.678;2022-09-13T05:40:15;13.20;99.90
7822;DHT22;3956;50.558;9.678;2022-09-13T05:42:53;13.20;99.90
7822;DHT22;3956;50.558;9.678;2022-09-13T05:45:29;13.20;99.90
7822;DHT22;3956;50.558;9.678;2022-09-13T05:47:58;13.20;99.90
7822;DHT22;3956;50.558;9.678;2022-09-13T05:50:36;13.40;99.90
7822;DHT22;3956;50.558;9.678;2022-09-13T05:53:28;13.40;99.90
7822;DHT22;3956;50.558;9.678;2022-09-13T05:56:14;13.50;99.90
7822;DHT22;3956;50.558;9.678;2022-09-13T05:58:57;13.70;99.90
7822;DHT22;3956;50.558;9.678;2022-09-13T06:01:35;13.80;99.90
7822;DHT22;3956;50.558;9.678;2022-09-13T06:04:03;13.80;99.90
7822;DHT22;3956;50.558;9.678;2022-09-13T06:06:35;13.80;99.90
7822;DHT22;3956;50.558;9.678;2022-09-13T06:09:09;13.90;99.90
7822;DHT22;3956;50.558;9.678;2022-09-13T06:11:39;14.00;99.90
7822;DHT22;3956;50.558;9.678;2022-09-13T06:14:15;14.00;99.90
7822;DHT22;3956;50.558;9.678;2022-09-13T06:17:06;14.20;99.90
7822;DHT22;3956;50.558;9.678;2022-09-13T06:19:41;14.20;99.90
7822;DHT22;3956;50.558;9.678;2022-09-13T06:22:11;14.20;99.90
7822;DHT22;3956;50.558;9.678;2022-09-13T06:24:40;14.20;99.90
7822;DHT22;3956;50.558;9.678;2022-09-13T06:27:11;14.20;99.90
7822;DHT22;3956;50.558;9.678;2022-09-13T06:29:50;14.30;99.90
7822;DHT22;3956;50.558;9.678;2022-09-13T06:32:29;14.20;99.90
7822;DHT22;3956;50.558;9.678;2022-09-13T06:35:09;14.20;99.90
7822;DHT22;3956;50.558;9.678;2022-09-13T06:37:50;14.30;99.90
7822;DHT22;3956;50.558;9.678;2022-09-13T06:40:21;14.40;99.90
7822;DHT22;3956;50.558;9.678;2022-09-13T06:42:51;14.50;99.90
7822;DHT22;3956;50.558;9.678;2022-09-13T06:45:21;14.60;99.90
7822;DHT22;3956;50.558;9.678;2022-09-13T06:47:52;14.70;99.90
7822;DHT22;3956;50.558;9.678;2022-09-13T06:50:21;14.80;99.90
7822;DHT22;3956;50.558;9.678;2022-09-13T06:52:49;14.90;99.90
7822;DHT22;3956;50.558;9.678;2022-09-13T06:55:22;15.10;99.90
7822;DHT22;3956;50.558;9.678;2022-09-13T06:57:51;15.20;99.90
7822;DHT22;3956;50.558;9.678;2022-09-13T07:00:21;15.30;99.90
7822;DHT22;3956;50.558;9.678;2022-09-13T07:02:50;15.20;99.90
7822;DHT22;3956;50.558;9.678;2022-09-13T07:05:19;15.30;99.90
7822;DHT22;3956;50.558;9.678;2022-09-13T07:07:47;15.30;99.90
7822;DHT22;3956;50.558;9.678;2022-09-13T07:10:17;15.40;99.90
7822;DHT22;3956;50.558;9.678;2022-09-13T07:12:46;15.50;99.90
7822;DHT22;3956;50.558;9.678;2022-09-13T07:15:18;15.60;99.90
7822;DHT22;3956;50.558;9.678;2022-09-13T07:17:49;15.70;99.90
7822;DHT22;3956;50.558;9.678;2022-09-13T07:20:20;15.80;99.90
7822;DHT22;3956;50.558;9.678;2022-09-13T07:22:58;15.90;99.90
7822;DHT22;3956;50.558;9.678;2022-09-13T07:25:35;16.00;99.90
7822;DHT22;3956;50.558;9.678;2022-09-13T07:28:12;16.00;99.90
7822;DHT22;3956;50.558;9.678;2022-09-13T07:30:48;16.10;99.90
7822;DHT22;3956;50.558;9.678;2022-09-13T07:33:18;16.00;99.90
7822;DHT22;3956;50.558;9.678;2022-09-13T07:35:54;16.00;99.90
7822;DHT22;3956;50.558;9.678;2022-09-13T07:38:29;16.10;99.90
7822;DHT22;3956;50.558;9.678;2022-09-13T07:41:10;16.00;99.90
7822;DHT22;3956;50.558;9.678;2022-09-13T07:43:48;16.00;99.90
7822;DHT22;3956;50.558;9.678;2022-09-13T07:46:21;16.10;99.90
7822;DHT22;3956;50.558;9.678;2022-09-13T07:48:54;16.20;99.90
7822;DHT22;3956;50.558;9.678;2022-09-13T07:51:23;16.20;99.90
7822;DHT22;3956;50.558;9.678;2022-09-13T07:53:55;16.30;99.90
7822;DHT22;3956;50.558;9.678;2022-09-13T07:56:28;16.50;99.90
7822;DHT22;3956;50.558;9.678;2022-09-13T07:58:58;16.60;99.90
7822;DHT22;3956;50.558;9.678;2022-09-13T08:01:28;16.70;99.90
7822;DHT22;3956;50.558;9.678;2022-09-13T08:04:02;16.80;99.90
7822;DHT22;3956;50.558;9.678;2022-09-13T08:06:36;16.80;99.90
7822;DHT22;3956;50.558;9.678;2022-09-13T08:09:10;17.00;99.90
7822;DHT22;3956;50.558;9.678;2022-09-13T08:11:44;17.10;99.90
7822;DHT22;3956;50.558;9.678;2022-09-13T08:14:17;17.20;99.90
7822;DHT22;3956;50.558;9.678;2022-09-13T08:16:58;17.10;99.90
7822;DHT22;3956;50.558;9.678;2022-09-13T08:19:51;17.10;99.90
7822;DHT22;3956;50.558;9.678;2022-09-13T08:22:26;17.10;99.90
7822;DHT22;3956;50.558;9.678;2022-09-13T08:24:54;17.20;99.90
7822;DHT22;3956;50.558;9.678;2022-09-13T08:27:23;17.20;99.90
7822;DHT22;3956;50.558;9.678;2022-09-13T08:29:53;17.30;99.90
7822;DHT22;3956;50.558;9.678;2022-09-13T08:32:23;17.40;99.90
7822;DHT22;3956;50.558;9.678;2022-09-13T08:34:53;17.50;99.90
7822;DHT22;3956;50.558;9.678;2022-09-13T08:37:22;17.40;99.90
7822;DHT22;3956;50.558;9.678;2022-09-13T08:39:52;17.40;99.90
7822;DHT22;3956;50.558;9.678;2022-09-13T08:42:30;17.50;99.90
7822;DHT22;3956;50.558;9.678;2022-09-13T08:45:02;17.60;99.90
7822;DHT22;3956;50.558;9.678;2022-09-13T08:47:37;17.60;99.90
7822;DHT22;3956;50.558;9.678;2022-09-13T08:50:16;17.70;99.90
7822;DHT22;3956;50.558;9.678;2022-09-13T08:53:05;17.40;99.90
7822;DHT22;3956;50.558;9.678;2022-09-13T08:55:43;17.70;99.90
7822;DHT22;3956;50.558;9.678;2022-09-13T08:58:32;17.90;99.90
7822;DHT22;3956;50.558;9.678;2022-09-13T09:01:07;18.10;99.90
7822;DHT22;3956;50.558;9.678;2022-09-13T09:03:42;18.60;99.90
7822;DHT22;3956;50.558;9.678;2022-09-13T09:06:15;18.60;99.90
7822;DHT22;3956;50.558;9.678;2022-09-13T09:08:46;18.50;99.90
7822;DHT22;3956;50.558;9.678;2022-09-13T09:11:23;18.50;99.90
7822;DHT22;3956;50.558;9.678;2022-09-13T09:14:01;18.30;99.90
7822;DHT22;3956;50.558;9.678;2022-09-13T09:16:37;18.50;99.90
7822;DHT22;3956;50.558;9.678;2022-09-13T09:19:15;18.50;99.90
7822;DHT22;3956;50.558;9.678;2022-09-13T09:21:49;18.60;99.90
7822;DHT22;3956;50.558;9.678;2022-09-13T09:24:24;18.60;99.90
7822;DHT22;3956;50.558;9.678;2022-09-13T09:26:56;18.70;99.90
7822;DHT22;3956;50.558;9.678;2022-09-13T09:29:27;18.90;99.90
7822;DHT22;3956;50.558;9.678;2022-09-13T09:32:08;19.30;99.90
7822;DHT22;3956;50.558;9.678;2022-09-13T09:34:50;19.80;99.90
7822;DHT22;3956;50.558;9.678;2022-09-13T09:37:27;19.90;99.90
7822;DHT22;3956;50.558;9.678;2022-09-13T09:39:59;19.80;99.90
7822;DHT22;3956;50.558;9.678;2022-09-13T09:42:33;20.00;99.90
7822;DHT22;3956;50.558;9.678;2022-09-13T09:45:22;20.20;99.90
7822;DHT22;3956;50.558;9.678;2022-09-13T09:47:58;20.10;99.90
7822;DHT22;3956;50.558;9.678;2022-09-13T09:50:58;19.80;99.90
7822;DHT22;3956;50.558;9.678;2022-09-13T09:53:40;19.50;99.90
7822;DHT22;3956;50.558;9.678;2022-09-13T09:56:29;20.10;99.90
7822;DHT22;3956;50.558;9.678;2022-09-13T09:59:24;20.00;99.90
7822;DHT22;3956;50.558;9.678;2022-09-13T10:02:01;20.20;99.90
7822;DHT22;3956;50.558;9.678;2022-09-13T10:04:34;20.50;99.90
7822;DHT22;3956;50.558;9.678;2022-09-13T10:07:28;20.50;99.90
7822;DHT22;3956;50.558;9.678;2022-09-13T10:10:32;20.60;99.90
7822;DHT22;3956;50.558;9.678;2022-09-13T10:13:22;20.50;99.90
7822;DHT22;3956;50.558;9.678;2022-09-13T10:16:26;20.80;99.90
7822;DHT22;3956;50.558;9.678;2022-09-13T10:19:22;20.90;99.90
7822;DHT22;3956;50.558;9.678;2022-09-13T10:22:08;21.20;99.90
7822;DHT22;3956;50.558;9.678;2022-09-13T10:24:44;21.40;99.90
7822;DHT22;3956;50.558;9.678;2022-09-13T10:27:51;21.10;99.90
7822;DHT22;3956;50.558;9.678;2022-09-13T10:30:55;21.40;99.90
7822;DHT22;3956;50.558;9.678;2022-09-13T10:51:34;21.30;99.90
7822;DHT22;3956;50.558;9.678;2022-09-13T10:54:18;21.80;99.90
7822;DHT22;3956;50.558;9.678;2022-09-13T10:56:48;21.70;99.90
7822;DHT22;3956;50.558;9.678;2022-09-13T10:59:28;21.30;99.90
7822;DHT22;3956;50.558;9.678;2022-09-13T11:02:28;21.70;99.90
7822;DHT22;3956;50.558;9.678;2022-09-13T11:05:22;21.90;99.90
7822;DHT22;3956;50.558;9.678;2022-09-13T11:08:33;21.70;99.90
7822;DHT22;3956;50.558;9.678;2022-09-13T11:11:49;22.00;99.90
7822;DHT22;3956;50.558;9.678;2022-09-13T11:15:30;22.00;99.90
7822;DHT22;3956;50.558;9.678;2022-09-13T11:18:49;21.70;99.90
7822;DHT22;3956;50.558;9.678;2022-09-13T11:22:06;21.90;99.90
7822;DHT22;3956;50.558;9.678;2022-09-13T11:25:02;22.50;99.90
7822;DHT22;3956;50.558;9.678;2022-09-13T11:27:59;22.50;99.90
7822;DHT22;3956;50.558;9.678;2022-09-13T11:31:20;22.60;99.90
7822;DHT22;3956;50.558;9.678;2022-09-13T11:34:04;22.50;99.90
7822;DHT22;3956;50.558;9.678;2022-09-13T11:36:55;22.50;99.90
7822;DHT22;3956;50.558;9.678;2022-09-13T11:40:34;22.50;99.90
7822;DHT22;3956;50.558;9.678;2022-09-13T11:43:32;22.60;99.90
7822;DHT22;3956;50.558;9.678;2022-09-13T11:46:13;22.80;99.90
7822;DHT22;3956;50.558;9.678;2022-09-13T11:49:15;22.90;99.90
7822;DHT22;3956;50.558;9.678;2022-09-13T11:51:59;23.10;99.90
7822;DHT22;3956;50.558;9.678;2022-09-13T11:54:51;23.70;99.90
7822;DHT22;3956;50.558;9.678;2022-09-13T11:57:28;23.40;99.90
7822;DHT22;3956;50.558;9.678;2022-09-13T12:00:12;23.30;99.90
7822;DHT22;3956;50.558;9.678;2022-09-13T12:02:54;23.20;99.90
7822;DHT22;3956;50.558;9.678;2022-09-13T12:05:28;23.70;99.90
7822;DHT22;3956;50.558;9.678;2022-09-13T12:08:03;23.50;99.90
7822;DHT22;3956;50.558;9.678;2022-09-13T12:10:39;23.70;99.90
7822;DHT22;3956;50.558;9.678;2022-09-13T12:13:22;23.80;99.90
7822;DHT22;3956;50.558;9.678;2022-09-13T12:16:11;24.30;99.90
7822;DHT22;3956;50.558;9.678;2022-09-13T12:19:03;24.10;99.90
7822;DHT22;3956;50.558;9.678;2022-09-13T12:21:41;24.20;99.90
7822;DHT22;3956;50.558;9.678;2022-09-13T12:24:23;24.20;99.90
7822;DHT22;3956;50.558;9.678;2022-09-13T12:27:02;24.50;99.90
7822;DHT22;3956;50.558;9.678;2022-09-13T12:29:47;24.00;99.90
7822;DHT22;3956;50.558;9.678;2022-09-13T12:32:21;24.20;99.90
7822;DHT22;3956;50.558;9.678;2022-09-13T12:35:01;24.50;99.90
7822;DHT22;3956;50.558;9.678;2022-09-13T12:41:27;24.30;99.90
7822;DHT22;3956;50.558;9.678;2022-09-13T12:44:51;24.50;99.90
7822;DHT22;3956;50.558;9.678;2022-09-13T12:47:54;24.30;99.90
7822;DHT22;3956;50.558;9.678;2022-09-13T12:50:54;24.60;99.90
7822;DHT22;3956;50.558;9.678;2022-09-13T12:53:55;24.60;99.90
7822;DHT22;3956;50.558;9.678;2022-09-13T12:56:41;24.50;99.90
7822;DHT22;3956;50.558;9.678;2022-09-13T12:59:41;24.50;99.90
7822;DHT22;3956;50.558;9.678;2022-09-13T13:02:27;24.20;99.90
7822;DHT22;3956;50.558;9.678;2022-09-13T13:05:23;24.00;99.90
7822;DHT22;3956;50.558;9.678;2022-09-13T13:08:27;23.90;99.90
7822;DHT22;3956;50.558;9.678;2022-09-13T13:11:40;24.00;99.90
7822;DHT22;3956;50.558;9.678;2022-09-13T13:14:46;23.70;99.90
7822;DHT22;3956;50.558;9.678;2022-09-13T13:21:01;24.30;99.90
7822;DHT22;3956;50.558;9.678;2022-09-13T13:23:33;23.70;99.90
7822;DHT22;3956;50.558;9.678;2022-09-13T13:26:08;24.00;99.90
7822;DHT22;3956;50.558;9.678;2022-09-13T13:29:16;23.90;99.90
7822;DHT22;3956;50.558;9.678;2022-09-13T13:32:14;24.00;99.90
7822;DHT22;3956;50.558;9.678;2022-09-13T13:34:46;23.90;99.90
7822;DHT22;3956;50.558;9.678;2022-09-13T13:37:38;24.20;99.90
7822;DHT22;3956;50.558;9.678;2022-09-13T13:40:25;24.30;99.90
7822;DHT22;3956;50.558;9.678;2022-09-13T13:43:14;23.70;99.90
7822;DHT22;3956;50.558;9.678;2022-09-13T13:48:46;23.40;99.90
7822;DHT22;3956;50.558;9.678;2022-09-13T13:51:23;23.40;99.90
7822;DHT22;3956;50.558;9.678;2022-09-13T13:54:02;23.40;99.90
7822;DHT22;3956;50.558;9.678;2022-09-13T13:56:52;23.40;99.90
7822;DHT22;3956;50.558;9.678;2022-09-13T13:59:31;23.40;99.90
7822;DHT22;3956;50.558;9.678;2022-09-13T14:02:14;23.40;99.90
7822;DHT22;3956;50.558;9.678;2022-09-13T14:05:10;23.40;99.90
7822;DHT22;3956;50.558;9.678;2022-09-13T14:11:14;22.90;99.90
7822;DHT22;3956;50.558;9.678;2022-09-13T14:21:24;23.20;99.90
7822;DHT22;3956;50.558;9.678;2022-09-13T14:24:16;23.00;99.90
7822;DHT22;3956;50.558;9.678;2022-09-13T14:26:58;22.90;99.90
7822;DHT22;3956;50.558;9.678;2022-09-13T14:29:39;23.20;99.90
7822;DHT22;3956;50.558;9.678;2022-09-13T14:32:20;23.50;99.90
7822;DHT22;3956;50.558;9.678;2022-09-13T14:35:27;23.40;99.90
7822;DHT22;3956;50.558;9.678;2022-09-13T14:38:20;23.10;99.90
7822;DHT22;3956;50.558;9.678;2022-09-13T14:41:00;23.50;99.90
7822;DHT22;3956;50.558;9.678;2022-09-13T14:44:19;23.80;99.90
7822;DHT22;3956;50.558;9.678;2022-09-13T14:47:11;23.70;99.90
7822;DHT22;3956;50.558;9.678;2022-09-13T14:49:48;23.50;99.90
7822;DHT22;3956;50.558;9.678;2022-09-13T14:52:27;23.70;99.90
7822;DHT22;3956;50.558;9.678;2022-09-13T14:55:10;23.80;99.90
7822;DHT22;3956;50.558;9.678;2022-09-13T14:57:54;23.90;99.90
7822;DHT22;3956;50.558;9.678;2022-09-13T15:00:54;23.80;99.90
7822;DHT22;3956;50.558;9.678;2022-09-13T15:03:58;23.90;99.90
7822;DHT22;3956;50.558;9.678;2022-09-13T15:06:49;23.80;99.90
7822;DHT22;3956;50.558;9.678;2022-09-13T15:09:50;23.50;99.90
7822;DHT22;3956;50.558;9.678;2022-09-13T15:12:53;23.60;99.90
7822;DHT22;3956;50.558;9.678;2022-09-13T15:15:43;23.40;99.90
7822;DHT22;3956;50.558;9.678;2022-09-13T15:18:28;23.60;99.90
7822;DHT22;3956;50.558;9.678;2022-09-13T15:21:04;23.60;99.90
7822;DHT22;3956;50.558;9.678;2022-09-13T15:23:39;23.60;99.90
7822;DHT22;3956;50.558;9.678;2022-09-13T15:26:24;23.50;99.90
7822;DHT22;3956;50.558;9.678;2022-09-13T15:29:05;23.60;99.90
7822;DHT22;3956;50.558;9.678;2022-09-13T15:32:34;23.40;99.90
7822;DHT22;3956;50.558;9.678;2022-09-13T15:35:29;23.50;99.90
7822;DHT22;3956;50.558;9.678;2022-09-13T15:38:01;23.50;99.90
7822;DHT22;3956;50.558;9.678;2022-09-13T15:40:43;23.50;99.90
7822;DHT22;3956;50.558;9.678;2022-09-13T15:43:26;23.40;99.90
7822;DHT22;3956;50.558;9.678;2022-09-13T15:46:12;23.20;99.90
7822;DHT22;3956;50.558;9.678;2022-09-13T15:48:49;23.30;99.90
7822;DHT22;3956;50.558;9.678;2022-09-13T15:51:22;23.10;99.90
7822;DHT22;3956;50.558;9.678;2022-09-13T15:53:56;23.10;99.90
7822;DHT22;3956;50.558;9.678;2022-09-13T15:56:36;22.90;99.90
7822;DHT22;3956;50.558;9.678;2022-09-13T15:59:13;22.60;99.90
7822;DHT22;3956;50.558;9.678;2022-09-13T16:01:48;22.60;99.90
7822;DHT22;3956;50.558;9.678;2022-09-13T16:04:20;22.50;99.90
7822;DHT22;3956;50.558;9.678;2022-09-13T16:06:51;22.50;99.90
7822;DHT22;3956;50.558;9.678;2022-09-13T16:09:23;22.40;99.90
7822;DHT22;3956;50.558;9.678;2022-09-13T16:12:00;22.40;99.90
7822;DHT22;3956;50.558;9.678;2022-09-13T16:14:39;22.30;99.90
7822;DHT22;3956;50.558;9.678;2022-09-13T16:17:19;22.20;99.90
7822;DHT22;3956;50.558;9.678;2022-09-13T16:19:53;22.20;99.90
7822;DHT22;3956;50.558;9.678;2022-09-13T16:22:23;22.20;99.90
7822;DHT22;3956;50.558;9.678;2022-09-13T16:24:59;22.10;99.90
7822;DHT22;3956;50.558;9.678;2022-09-13T16:27:33;22.10;99.90
7822;DHT22;3956;50.558;9.678;2022-09-13T16:30:11;22.00;99.90
7822;DHT22;3956;50.558;9.678;2022-09-13T16:32:49;22.00;99.90
7822;DHT22;3956;50.558;9.678;2022-09-13T16:35:25;22.00;99.90
7822;DHT22;3956;50.558;9.678;2022-09-13T16:38:01;22.00;99.90
7822;DHT22;3956;50.558;9.678;2022-09-13T16:40:30;22.00;99.90
7822;DHT22;3956;50.558;9.678;2022-09-13T16:43:02;21.90;99.90
7822;DHT22;3956;50.558;9.678;2022-09-13T16:45:40;21.80;99.90
7822;DHT22;3956;50.558;9.678;2022-09-13T16:48:12;21.60;99.90
7822;DHT22;3956;50.558;9.678;2022-09-13T16:50:48;21.60;99.90
7822;DHT22;3956;50.558;9.678;2022-09-13T16:53:19;21.40;99.90
7822;DHT22;3956;50.558;9.678;2022-09-13T16:55:50;21.40;99.90
7822;DHT22;3956;50.558;9.678;2022-09-13T16:58:37;21.30;99.90
7822;DHT22;3956;50.558;9.678;2022-09-13T17:01:32;21.30;99.90
7822;DHT22;3956;50.558;9.678;2022-09-13T17:07:52;21.20;99.90
7822;DHT22;3956;50.558;9.678;2022-09-13T17:10:32;21.20;99.90
7822;DHT22;3956;50.558;9.678;2022-09-13T17:13:11;21.20;99.90
7822;DHT22;3956;50.558;9.678;2022-09-13T17:15:49;21.00;99.90
7822;DHT22;3956;50.558;9.678;2022-09-13T17:18:47;21.00;99.90
7822;DHT22;3956;50.558;9.678;2022-09-13T17:21:51;20.90;99.90
7822;DHT22;3956;50.558;9.678;2022-09-13T17:24:24;20.80;99.90
7822;DHT22;3956;50.558;9.678;2022-09-13T17:26:56;20.80;99.90
7822;DHT22;3956;50.558;9.678;2022-09-13T17:29:30;20.70;99.90
7822;DHT22;3956;50.558;9.678;2022-09-13T17:32:12;20.60;99.90
7822;DHT22;3956;50.558;9.678;2022-09-13T17:34:53;20.60;99.90
7822;DHT22;3956;50.558;9.678;2022-09-13T17:37:25;20.60;99.90
7822;DHT22;3956;50.558;9.678;2022-09-13T17:39:54;20.40;99.90
7822;DHT22;3956;50.558;9.678;2022-09-13T17:42:30;20.40;99.90
7822;DHT22;3956;50.558;9.678;2022-09-13T17:44:59;20.40;99.90
7822;DHT22;3956;50.558;9.678;2022-09-13T17:47:32;20.40;99.90
7822;DHT22;3956;50.558;9.678;2022-09-13T17:50:10;20.30;99.90
7822;DHT22;3956;50.558;9.678;2022-09-13T17:52:45;20.30;99.90
7822;DHT22;3956;50.558;9.678;2022-09-13T17:55:14;20.30;99.90
7822;DHT22;3956;50.558;9.678;2022-09-13T17:57:52;20.30;99.90
7822;DHT22;3956;50.558;9.678;2022-09-13T18:00:23;20.20;99.90
7822;DHT22;3956;50.558;9.678;2022-09-13T18:02:58;20.20;99.90
7822;DHT22;3956;50.558;9.678;2022-09-13T18:05:40;20.20;99.90
7822;DHT22;3956;50.558;9.678;2022-09-13T18:08:16;20.10;99.90
7822;DHT22;3956;50.558;9.678;2022-09-13T18:10:47;20.20;99.90